BAW844 EGLL-EPWA
Flight info
| Callsign | BAW844 |
|---|---|
| Flight time | N/A |
| Altitude | 37000 |
| Route | BPK Q295 BRAIN M197 REDFA DCT TACHA DCT VIBIS L619 PODUS DCT ALUKA DCT EKBUT L619 DENKO P851 BIMPA |
| Aircraft | A21N/M-SDE2E3FGHIRWXY/LB1 |
Departure
| Time | 2026-04-30 13:32 |
|---|---|
| Airport | London Heathrow Airport (EGLL) |
Arrival
| Time | N/A |
|---|---|
| Airport | Warsaw Chopin Airport (EPWA) |
| Time | Latitude | Longitude | Altitude | Speed | Heading |
|---|---|---|---|---|---|
| 2026-04-30 12:30 | 51.47422 | -0.48953 | 95 ft | 0 kts | 180° |
| 2026-04-30 13:17 | 51.47470 | -0.48952 | 95 ft | 4 kts | 181° |
| 2026-04-30 13:18 | 51.47497 | -0.48951 | 94 ft | 4 kts | 181° |
| 2026-04-30 13:18 | 51.47494 | -0.48929 | 95 ft | 4 kts | 126° |
| 2026-04-30 13:18 | 51.47485 | -0.48889 | 93 ft | 4 kts | 102° |
| 2026-04-30 13:19 | 51.47483 | -0.48847 | 95 ft | 3 kts | 91° |
| 2026-04-30 13:19 | 51.47483 | -0.48842 | 95 ft | 0 kts | 90° |
| 2026-04-30 13:23 | 51.47483 | -0.48840 | 95 ft | 1 kts | 89° |
| 2026-04-30 13:23 | 51.47487 | -0.48747 | 94 ft | 7 kts | 89° |
| 2026-04-30 13:24 | 51.47489 | -0.48563 | 91 ft | 10 kts | 89° |
| 2026-04-30 13:24 | 51.47359 | -0.48473 | 91 ft | 13 kts | 180° |
| 2026-04-30 13:25 | 51.47148 | -0.48472 | 91 ft | 17 kts | 180° |
| 2026-04-30 13:25 | 51.46937 | -0.48471 | 93 ft | 12 kts | 180° |
| 2026-04-30 13:26 | 51.46703 | -0.48468 | 92 ft | 10 kts | 179° |
| 2026-04-30 13:26 | 51.46661 | -0.48467 | 92 ft | 0 kts | 179° |
| 2026-04-30 13:28 | 51.46609 | -0.48467 | 92 ft | 5 kts | 179° |
| 2026-04-30 13:28 | 51.46603 | -0.48467 | 92 ft | 0 kts | 179° |
| 2026-04-30 13:29 | 51.46531 | -0.48466 | 92 ft | 8 kts | 179° |
| 2026-04-30 13:30 | 51.46479 | -0.48397 | 92 ft | 0 kts | 90° |
| 2026-04-30 13:31 | 51.46484 | -0.46904 | 95 ft | 133 kts | 90° |
| 2026-04-30 13:32 | 51.46493 | -0.43315 | 982 ft | 170 kts | 91° |
| 2026-04-30 13:32 | 51.47157 | -0.39411 | 2337 ft | 205 kts | 56° |
| 2026-04-30 13:33 | 51.49142 | -0.35754 | 3892 ft | 235 kts | 54° |
| 2026-04-30 13:33 | 51.51427 | -0.31477 | 5253 ft | 267 kts | 56° |
| 2026-04-30 13:34 | 51.52451 | -0.29005 | 5758 ft | 265 kts | 71° |
| 2026-04-30 13:34 | 51.54316 | -0.20630 | 6016 ft | 267 kts | 75° |
| 2026-04-30 13:35 | 51.55356 | -0.18126 | 5998 ft | 279 kts | 45° |
| 2026-04-30 13:35 | 51.59139 | -0.16915 | 6099 ft | 296 kts | 349° |
| 2026-04-30 13:36 | 51.63122 | -0.16372 | 6136 ft | 289 kts | 21° |
| 2026-04-30 13:36 | 51.65039 | -0.15405 | 6140 ft | 289 kts | 21° |
| 2026-04-30 13:36 | 51.68869 | -0.13545 | 6119 ft | 289 kts | 20° |
| 2026-04-30 13:37 | 51.70798 | -0.12639 | 6127 ft | 289 kts | 20° |
| 2026-04-30 13:37 | 51.74314 | -0.09841 | 6119 ft | 277 kts | 53° |
| 2026-04-30 13:38 | 51.75617 | -0.04296 | 7299 ft | 268 kts | 87° |
| 2026-04-30 13:38 | 51.75830 | -0.01299 | 8238 ft | 270 kts | 88° |
| 2026-04-30 13:38 | 51.76280 | 0.04753 | 10205 ft | 273 kts | 86° |
| 2026-04-30 13:39 | 51.76786 | 0.11162 | 11189 ft | 312 kts | 86° |
| 2026-04-30 13:39 | 51.77388 | 0.18592 | 11827 ft | 355 kts | 85° |
| 2026-04-30 13:40 | 51.77719 | 0.22647 | 12127 ft | 373 kts | 85° |
| 2026-04-30 13:40 | 51.78065 | 0.26889 | 12428 ft | 388 kts | 85° |
| 2026-04-30 13:40 | 51.78421 | 0.31254 | 12934 ft | 395 kts | 85° |
| 2026-04-30 13:40 | 51.78777 | 0.35669 | 13525 ft | 398 kts | 85° |
| 2026-04-30 13:41 | 51.79135 | 0.40128 | 14104 ft | 402 kts | 85° |
| 2026-04-30 13:41 | 51.79494 | 0.44632 | 14599 ft | 406 kts | 85° |
| 2026-04-30 13:41 | 51.79848 | 0.49107 | 15073 ft | 409 kts | 85° |
| 2026-04-30 13:41 | 51.80208 | 0.53684 | 15621 ft | 411 kts | 85° |
| 2026-04-30 13:42 | 51.80567 | 0.58287 | 16128 ft | 414 kts | 85° |
| 2026-04-30 13:42 | 51.80926 | 0.62913 | 16575 ft | 417 kts | 85° |
| 2026-04-30 13:42 | 51.82171 | 0.72175 | 17436 ft | 426 kts | 78° |
| 2026-04-30 13:43 | 51.82896 | 0.76835 | 17847 ft | 429 kts | 79° |
| 2026-04-30 13:43 | 51.83638 | 0.81530 | 18269 ft | 433 kts | 77° |
| 2026-04-30 13:43 | 51.84484 | 0.86232 | 18669 ft | 437 kts | 76° |
| 2026-04-30 13:43 | 51.85350 | 0.90959 | 19062 ft | 440 kts | 76° |
| 2026-04-30 13:44 | 51.86206 | 0.95651 | 19483 ft | 441 kts | 76° |
| 2026-04-30 13:44 | 51.87074 | 1.00417 | 19955 ft | 442 kts | 76° |
| 2026-04-30 13:44 | 51.87939 | 1.05194 | 20392 ft | 443 kts | 76° |
| 2026-04-30 13:44 | 51.88803 | 1.09995 | 20839 ft | 445 kts | 76° |
| 2026-04-30 13:45 | 51.90540 | 1.19671 | 21778 ft | 450 kts | 76° |
| 2026-04-30 13:45 | 51.91416 | 1.24554 | 22253 ft | 452 kts | 76° |
| 2026-04-30 13:45 | 51.92296 | 1.29454 | 22726 ft | 454 kts | 76° |
| 2026-04-30 13:46 | 51.93174 | 1.34385 | 23169 ft | 457 kts | 76° |
| 2026-04-30 13:46 | 51.94043 | 1.39278 | 23595 ft | 460 kts | 76° |
| 2026-04-30 13:46 | 51.94930 | 1.44281 | 23998 ft | 463 kts | 76° |
| 2026-04-30 13:46 | 51.95818 | 1.49297 | 24432 ft | 463 kts | 76° |
| 2026-04-30 13:47 | 51.96703 | 1.54308 | 24925 ft | 462 kts | 76° |
| 2026-04-30 13:47 | 51.97583 | 1.59303 | 25433 ft | 460 kts | 76° |
| 2026-04-30 13:47 | 51.98455 | 1.64294 | 25934 ft | 459 kts | 76° |
| 2026-04-30 13:47 | 51.99304 | 1.69279 | 26440 ft | 457 kts | 78° |
| 2026-04-30 13:48 | 52.00087 | 1.74270 | 26942 ft | 456 kts | 78° |
| 2026-04-30 13:48 | 52.00855 | 1.79181 | 27436 ft | 455 kts | 78° |
| 2026-04-30 13:48 | 52.01627 | 1.84149 | 27947 ft | 453 kts | 78° |
| 2026-04-30 13:48 | 52.02391 | 1.89103 | 28437 ft | 452 kts | 78° |
| 2026-04-30 13:49 | 52.03154 | 1.94051 | 28921 ft | 451 kts | 78° |
| 2026-04-30 13:49 | 52.03912 | 1.98979 | 29395 ft | 450 kts | 78° |
| 2026-04-30 13:49 | 52.04672 | 2.03904 | 29878 ft | 449 kts | 78° |
| 2026-04-30 13:49 | 52.05427 | 2.08818 | 30356 ft | 448 kts | 78° |
| 2026-04-30 13:50 | 52.06176 | 2.13724 | 30770 ft | 447 kts | 78° |
| 2026-04-30 13:50 | 52.07652 | 2.23428 | 31572 ft | 444 kts | 79° |
| 2026-04-30 13:50 | 52.08388 | 2.28300 | 31970 ft | 443 kts | 79° |
| 2026-04-30 13:51 | 52.09119 | 2.33165 | 32368 ft | 442 kts | 79° |
| 2026-04-30 13:51 | 52.09846 | 2.38016 | 32759 ft | 441 kts | 79° |
| 2026-04-30 13:51 | 52.10571 | 2.42852 | 33138 ft | 440 kts | 79° |
| 2026-04-30 13:51 | 52.11298 | 2.47681 | 33504 ft | 439 kts | 78° |
| 2026-04-30 13:52 | 52.12152 | 2.52443 | 33887 ft | 438 kts | 75° |
| 2026-04-30 13:52 | 52.13054 | 2.57171 | 34250 ft | 437 kts | 75° |
| 2026-04-30 13:52 | 52.13944 | 2.61826 | 34524 ft | 436 kts | 75° |
| 2026-04-30 13:52 | 52.14845 | 2.66544 | 34779 ft | 436 kts | 75° |
| 2026-04-30 13:53 | 52.15741 | 2.71258 | 35026 ft | 436 kts | 75° |
| 2026-04-30 13:53 | 52.16632 | 2.75976 | 35267 ft | 436 kts | 75° |
| 2026-04-30 13:53 | 52.17522 | 2.80692 | 35499 ft | 435 kts | 75° |
| 2026-04-30 13:53 | 52.18410 | 2.85402 | 35726 ft | 435 kts | 75° |
| 2026-04-30 13:54 | 52.19297 | 2.90120 | 35945 ft | 435 kts | 75° |
| 2026-04-30 13:54 | 52.20179 | 2.94837 | 36160 ft | 435 kts | 75° |
| 2026-04-30 13:54 | 52.21057 | 2.99549 | 36413 ft | 434 kts | 75° |
| 2026-04-30 13:54 | 52.21920 | 3.04185 | 36660 ft | 433 kts | 75° |
| 2026-04-30 13:55 | 52.22793 | 3.08874 | 36886 ft | 432 kts | 75° |
| 2026-04-30 13:55 | 52.23664 | 3.13566 | 37101 ft | 432 kts | 75° |
| 2026-04-30 13:55 | 52.24530 | 3.18248 | 37310 ft | 432 kts | 75° |
| 2026-04-30 13:55 | 52.25389 | 3.22954 | 37383 ft | 434 kts | 76° |
| 2026-04-30 13:56 | 52.26620 | 3.32564 | 37357 ft | 432 kts | 81° |
| 2026-04-30 13:56 | 52.27751 | 3.42198 | 37350 ft | 432 kts | 81° |
| 2026-04-30 13:57 | 52.28871 | 3.51770 | 37336 ft | 431 kts | 81° |
| 2026-04-30 13:57 | 52.29985 | 3.61381 | 37330 ft | 431 kts | 81° |
| 2026-04-30 13:58 | 52.31644 | 3.75806 | 37339 ft | 430 kts | 81° |
| 2026-04-30 13:59 | 52.32737 | 3.85356 | 37342 ft | 431 kts | 81° |
| 2026-04-30 13:59 | 52.33826 | 3.94979 | 37349 ft | 430 kts | 81° |
| 2026-04-30 14:00 | 52.34906 | 4.04594 | 37347 ft | 429 kts | 81° |
| 2026-04-30 14:00 | 52.36512 | 4.19015 | 37361 ft | 429 kts | 81° |
| 2026-04-30 14:01 | 52.37573 | 4.28634 | 37359 ft | 430 kts | 81° |
| 2026-04-30 14:01 | 52.38615 | 4.38194 | 37368 ft | 429 kts | 81° |
| 2026-04-30 14:02 | 52.39660 | 4.47819 | 37374 ft | 430 kts | 81° |
| 2026-04-30 14:02 | 52.40698 | 4.57455 | 37382 ft | 430 kts | 81° |
| 2026-04-30 14:03 | 52.41728 | 4.67093 | 37380 ft | 430 kts | 81° |
| 2026-04-30 14:03 | 52.42745 | 4.76740 | 37384 ft | 430 kts | 81° |
| 2026-04-30 14:04 | 52.43750 | 4.86307 | 37390 ft | 429 kts | 81° |
| 2026-04-30 14:04 | 52.44755 | 4.95939 | 37394 ft | 428 kts | 81° |
| 2026-04-30 14:05 | 52.45748 | 5.05545 | 37388 ft | 425 kts | 81° |
| 2026-04-30 14:05 | 52.46730 | 5.15117 | 37406 ft | 426 kts | 81° |
| 2026-04-30 14:06 | 52.48185 | 5.29470 | 37404 ft | 425 kts | 81° |
| 2026-04-30 14:07 | 52.49617 | 5.43794 | 37417 ft | 426 kts | 81° |
| 2026-04-30 14:08 | 52.51037 | 5.58179 | 37418 ft | 426 kts | 81° |
| 2026-04-30 14:08 | 52.52440 | 5.72559 | 37402 ft | 425 kts | 81° |
| 2026-04-30 14:09 | 52.53211 | 5.80522 | 37415 ft | 425 kts | 81° |
| 2026-04-30 14:10 | 52.54734 | 5.96485 | 37396 ft | 424 kts | 81° |
| 2026-04-30 14:10 | 52.55641 | 6.06101 | 37415 ft | 425 kts | 81° |
| 2026-04-30 14:11 | 52.56389 | 6.14081 | 37416 ft | 426 kts | 81° |
| 2026-04-30 14:11 | 52.57277 | 6.23680 | 37393 ft | 426 kts | 81° |
| 2026-04-30 14:12 | 52.58164 | 6.33301 | 37399 ft | 425 kts | 81° |
| 2026-04-30 14:12 | 52.59184 | 6.44483 | 37422 ft | 425 kts | 81° |
| 2026-04-30 14:13 | 52.59914 | 6.52568 | 37433 ft | 425 kts | 80° |
| 2026-04-30 14:13 | 52.60771 | 6.62151 | 37431 ft | 427 kts | 81° |
| 2026-04-30 14:14 | 52.61627 | 6.71799 | 37421 ft | 427 kts | 81° |
| 2026-04-30 14:14 | 52.62475 | 6.81468 | 37410 ft | 428 kts | 81° |
| 2026-04-30 14:15 | 52.63310 | 6.91072 | 37428 ft | 427 kts | 81° |
| 2026-04-30 14:15 | 52.64138 | 7.00736 | 37447 ft | 426 kts | 81° |
| 2026-04-30 14:16 | 52.64966 | 7.10424 | 37442 ft | 427 kts | 81° |
| 2026-04-30 14:16 | 52.65785 | 7.20127 | 37451 ft | 428 kts | 81° |
| 2026-04-30 14:17 | 52.66596 | 7.29831 | 37462 ft | 428 kts | 81° |
| 2026-04-30 14:17 | 52.67391 | 7.39477 | 37471 ft | 428 kts | 81° |
| 2026-04-30 14:18 | 52.68188 | 7.49190 | 37469 ft | 428 kts | 81° |
| 2026-04-30 14:18 | 52.69364 | 7.63764 | 37449 ft | 428 kts | 81° |
| 2026-04-30 14:19 | 52.70519 | 7.78281 | 37460 ft | 428 kts | 81° |
| 2026-04-30 14:20 | 52.71283 | 7.88009 | 37477 ft | 428 kts | 81° |
| 2026-04-30 14:20 | 52.72414 | 8.02612 | 37478 ft | 428 kts | 81° |
| 2026-04-30 14:21 | 52.73152 | 8.12274 | 37488 ft | 427 kts | 81° |
| 2026-04-30 14:22 | 52.74251 | 8.26901 | 37470 ft | 428 kts | 81° |
| 2026-04-30 14:22 | 52.75335 | 8.41532 | 37480 ft | 428 kts | 81° |
| 2026-04-30 14:23 | 52.76747 | 8.60997 | 37498 ft | 428 kts | 81° |
| 2026-04-30 14:24 | 52.77787 | 8.75619 | 37490 ft | 428 kts | 81° |
| 2026-04-30 14:25 | 52.79145 | 8.95133 | 37493 ft | 428 kts | 81° |
| 2026-04-30 14:26 | 52.80138 | 9.09730 | 37510 ft | 428 kts | 81° |
| 2026-04-30 14:27 | 52.81118 | 9.24388 | 37494 ft | 428 kts | 81° |
| 2026-04-30 14:27 | 52.81762 | 9.34160 | 37495 ft | 428 kts | 81° |
| 2026-04-30 14:28 | 52.82703 | 9.48756 | 37496 ft | 428 kts | 81° |
| 2026-04-30 14:28 | 52.83315 | 9.58536 | 37498 ft | 427 kts | 81° |
| 2026-04-30 14:29 | 52.84538 | 9.78100 | 37494 ft | 428 kts | 81° |
| 2026-04-30 14:31 | 52.86010 | 10.02602 | 37493 ft | 430 kts | 82° |
| 2026-04-30 14:31 | 52.86880 | 10.17364 | 37502 ft | 429 kts | 81° |
| 2026-04-30 14:32 | 52.87729 | 10.32043 | 37491 ft | 429 kts | 81° |
| 2026-04-30 14:33 | 52.88285 | 10.41874 | 37490 ft | 429 kts | 82° |
| 2026-04-30 14:33 | 52.89104 | 10.56633 | 37493 ft | 429 kts | 82° |
| 2026-04-30 14:34 | 52.89635 | 10.66482 | 37498 ft | 429 kts | 82° |
| 2026-04-30 14:34 | 52.90158 | 10.76249 | 37500 ft | 428 kts | 81° |
| 2026-04-30 14:35 | 52.90934 | 10.90997 | 37495 ft | 428 kts | 81° |
| 2026-04-30 14:36 | 52.91440 | 11.00832 | 37494 ft | 428 kts | 82° |
| 2026-04-30 14:36 | 52.91942 | 11.10673 | 37496 ft | 429 kts | 82° |
| 2026-04-30 14:37 | 52.92427 | 11.20447 | 37511 ft | 429 kts | 81° |
| 2026-04-30 14:37 | 52.92909 | 11.30289 | 37495 ft | 428 kts | 81° |
| 2026-04-30 14:38 | 52.93385 | 11.40110 | 37506 ft | 428 kts | 81° |
| 2026-04-30 14:38 | 52.93859 | 11.49877 | 37502 ft | 428 kts | 81° |
| 2026-04-30 14:39 | 52.94319 | 11.59707 | 37500 ft | 428 kts | 82° |
| 2026-04-30 14:39 | 52.94768 | 11.69547 | 37502 ft | 428 kts | 82° |
| 2026-04-30 14:40 | 52.95423 | 11.84286 | 37501 ft | 426 kts | 81° |
| 2026-04-30 14:40 | 52.95849 | 11.94019 | 37502 ft | 426 kts | 81° |
| 2026-04-30 14:41 | 52.96276 | 12.03829 | 37504 ft | 426 kts | 81° |
| 2026-04-30 14:41 | 52.96690 | 12.13635 | 37502 ft | 426 kts | 82° |
| 2026-04-30 14:42 | 52.97092 | 12.23454 | 37498 ft | 426 kts | 82° |
| 2026-04-30 14:42 | 52.97465 | 12.33251 | 37506 ft | 425 kts | 84° |
| 2026-04-30 14:43 | 52.97241 | 12.43044 | 37502 ft | 428 kts | 88° |
| 2026-04-30 14:43 | 52.96905 | 12.52912 | 37492 ft | 428 kts | 88° |
| 2026-04-30 14:44 | 52.96575 | 12.62779 | 37494 ft | 428 kts | 88° |
| 2026-04-30 14:44 | 52.96242 | 12.72646 | 37485 ft | 429 kts | 88° |
| 2026-04-30 14:45 | 52.95898 | 12.82435 | 37502 ft | 426 kts | 88° |
| 2026-04-30 14:45 | 52.95554 | 12.92222 | 37488 ft | 425 kts | 88° |
| 2026-04-30 14:46 | 52.95202 | 13.02021 | 37485 ft | 426 kts | 88° |
| 2026-04-30 14:46 | 52.94850 | 13.11820 | 37482 ft | 426 kts | 88° |
| 2026-04-30 14:47 | 52.94493 | 13.21552 | 37478 ft | 426 kts | 88° |
| 2026-04-30 14:47 | 52.94123 | 13.31331 | 37511 ft | 424 kts | 88° |
| 2026-04-30 14:48 | 52.93737 | 13.41041 | 37486 ft | 422 kts | 88° |
| 2026-04-30 14:48 | 52.93340 | 13.50735 | 37475 ft | 422 kts | 88° |
| 2026-04-30 14:49 | 52.92948 | 13.60431 | 37474 ft | 422 kts | 88° |
| 2026-04-30 14:49 | 52.92549 | 13.70060 | 37474 ft | 422 kts | 88° |
| 2026-04-30 14:50 | 52.91939 | 13.84587 | 37483 ft | 420 kts | 88° |
| 2026-04-30 14:51 | 52.91303 | 13.99045 | 37472 ft | 420 kts | 88° |
| 2026-04-30 14:52 | 52.90657 | 14.13449 | 37473 ft | 420 kts | 88° |
| 2026-04-30 14:52 | 52.89990 | 14.27920 | 37468 ft | 420 kts | 88° |
| 2026-04-30 14:53 | 52.89313 | 14.42243 | 37473 ft | 417 kts | 88° |
| 2026-04-30 14:54 | 52.88361 | 14.61383 | 37461 ft | 417 kts | 88° |
| 2026-04-30 14:55 | 52.87630 | 14.75730 | 37459 ft | 417 kts | 88° |
| 2026-04-30 14:56 | 52.86644 | 14.94803 | 37455 ft | 417 kts | 88° |
| 2026-04-30 14:57 | 52.85875 | 15.09150 | 37455 ft | 417 kts | 88° |
| 2026-04-30 14:58 | 52.84828 | 15.28215 | 37454 ft | 417 kts | 89° |
| 2026-04-30 14:58 | 52.84031 | 15.42485 | 37453 ft | 415 kts | 88° |
| 2026-04-30 15:00 | 52.82660 | 15.66162 | 37444 ft | 415 kts | 88° |
| 2026-04-30 15:01 | 52.81467 | 15.85131 | 37478 ft | 416 kts | 91° |
| 2026-04-30 15:01 | 52.80130 | 15.99309 | 37440 ft | 416 kts | 91° |
| 2026-04-30 15:02 | 52.79229 | 16.08692 | 37423 ft | 416 kts | 91° |
| 2026-04-30 15:03 | 52.76928 | 16.32288 | 37470 ft | 416 kts | 91° |
| 2026-04-30 15:04 | 52.74598 | 16.55799 | 37432 ft | 416 kts | 91° |
| 2026-04-30 15:06 | 52.72221 | 16.79364 | 37436 ft | 416 kts | 92° |
| 2026-04-30 15:07 | 52.70271 | 16.98182 | 37428 ft | 418 kts | 92° |
| 2026-04-30 15:08 | 52.68294 | 17.17049 | 37424 ft | 418 kts | 92° |
| 2026-04-30 15:09 | 52.65775 | 17.40574 | 37437 ft | 419 kts | 92° |
| 2026-04-30 15:10 | 52.63727 | 17.59446 | 37430 ft | 419 kts | 92° |
| 2026-04-30 15:11 | 52.60599 | 17.87650 | 37435 ft | 419 kts | 92° |
| 2026-04-30 15:13 | 52.57926 | 18.11165 | 37434 ft | 420 kts | 92° |
| 2026-04-30 15:14 | 52.54071 | 18.44071 | 37432 ft | 420 kts | 93° |
| 2026-04-30 15:16 | 52.51309 | 18.67116 | 34866 ft | 404 kts | 91° |
| 2026-04-30 15:17 | 52.49156 | 18.84821 | 32359 ft | 392 kts | 90° |
| 2026-04-30 15:18 | 52.46452 | 19.06813 | 28857 ft | 397 kts | 91° |
| 2026-04-30 15:19 | 52.44787 | 19.20070 | 26521 ft | 401 kts | 92° |